sensor_id;sensor_type;location;lat;lon;timestamp;temperature;humidity
1391;DHT22;690;51.454;7.194;2023-12-04T00:01:47;-0.20;1.00
1391;DHT22;690;51.454;7.194;2023-12-04T00:04:17;-0.20;1.00
1391;DHT22;690;51.454;7.194;2023-12-04T00:06:44;-0.20;1.00
1391;DHT22;690;51.454;7.194;2023-12-04T00:09:10;-0.20;1.00
1391;DHT22;690;51.454;7.194;2023-12-04T00:11:38;-0.20;1.00
1391;DHT22;690;51.454;7.194;2023-12-04T00:14:05;-0.20;1.00
1391;DHT22;690;51.454;7.194;2023-12-04T00:16:33;-0.20;1.00
1391;DHT22;690;51.454;7.194;2023-12-04T00:19:02;-0.20;1.00
1391;DHT22;690;51.454;7.194;2023-12-04T00:21:29;-0.20;1.00
1391;DHT22;690;51.454;7.194;2023-12-04T00:23:56;-0.20;1.00
1391;DHT22;690;51.454;7.194;2023-12-04T00:26:23;-0.30;1.00
1391;DHT22;690;51.454;7.194;2023-12-04T00:28:50;-0.30;1.00
1391;DHT22;690;51.454;7.194;2023-12-04T00:31:17;-0.40;1.00
1391;DHT22;690;51.454;7.194;2023-12-04T00:33:43;-0.30;1.00
1391;DHT22;690;51.454;7.194;2023-12-04T00:36:12;-0.30;1.00
1391;DHT22;690;51.454;7.194;2023-12-04T00:38:39;-0.30;1.00
1391;DHT22;690;51.454;7.194;2023-12-04T00:41:06;-0.30;1.00
1391;DHT22;690;51.454;7.194;2023-12-04T00:43:33;-0.30;1.00
1391;DHT22;690;51.454;7.194;2023-12-04T00:46:00;-0.30;1.00
1391;DHT22;690;51.454;7.194;2023-12-04T00:48:27;-0.30;1.00
1391;DHT22;690;51.454;7.194;2023-12-04T00:50:54;-0.30;1.00
1391;DHT22;690;51.454;7.194;2023-12-04T00:53:23;-0.30;1.00
1391;DHT22;690;51.454;7.194;2023-12-04T00:55:50;-0.20;1.00
1391;DHT22;690;51.454;7.194;2023-12-04T00:58:17;-0.20;1.00
1391;DHT22;690;51.454;7.194;2023-12-04T01:00:43;-0.20;1.00
1391;DHT22;690;51.454;7.194;2023-12-04T01:03:10;-0.20;1.00
1391;DHT22;690;51.454;7.194;2023-12-04T01:05:39;-0.20;1.00
1391;DHT22;690;51.454;7.194;2023-12-04T01:08:06;-0.20;1.00
1391;DHT22;690;51.454;7.194;2023-12-04T01:10:34;-0.20;1.00
1391;DHT22;690;51.454;7.194;2023-12-04T01:13:01;-0.20;1.00
1391;DHT22;690;51.454;7.194;2023-12-04T01:15:28;-0.30;1.00
1391;DHT22;690;51.454;7.194;2023-12-04T01:17:55;-0.30;1.00
1391;DHT22;690;51.454;7.194;2023-12-04T01:20:22;-0.30;1.00
1391;DHT22;690;51.454;7.194;2023-12-04T01:22:49;-0.30;1.00
1391;DHT22;690;51.454;7.194;2023-12-04T01:25:16;-0.30;1.00
1391;DHT22;690;51.454;7.194;2023-12-04T01:27:44;-0.30;1.00
1391;DHT22;690;51.454;7.194;2023-12-04T01:30:12;-0.30;1.00
1391;DHT22;690;51.454;7.194;2023-12-04T01:32:39;-0.30;1.00
1391;DHT22;690;51.454;7.194;2023-12-04T01:35:07;-0.30;1.00
1391;DHT22;690;51.454;7.194;2023-12-04T01:37:34;-0.30;1.00
1391;DHT22;690;51.454;7.194;2023-12-04T01:40:00;-0.30;1.00
1391;DHT22;690;51.454;7.194;2023-12-04T01:42:30;-0.30;1.00
1391;DHT22;690;51.454;7.194;2023-12-04T01:44:58;-0.30;1.00
1391;DHT22;690;51.454;7.194;2023-12-04T01:47:25;-0.40;1.00
1391;DHT22;690;51.454;7.194;2023-12-04T01:49:52;-0.40;1.00
1391;DHT22;690;51.454;7.194;2023-12-04T01:52:19;-0.40;1.00
1391;DHT22;690;51.454;7.194;2023-12-04T01:54:46;-0.40;1.00
1391;DHT22;690;51.454;7.194;2023-12-04T01:57:13;-0.50;1.00
1391;DHT22;690;51.454;7.194;2023-12-04T01:59:40;-0.50;1.00
1391;DHT22;690;51.454;7.194;2023-12-04T02:02:08;-0.50;1.00
1391;DHT22;690;51.454;7.194;2023-12-04T02:04:36;-0.60;1.00
1391;DHT22;690;51.454;7.194;2023-12-04T02:07:04;-0.60;1.00
1391;DHT22;690;51.454;7.194;2023-12-04T02:09:30;-0.60;1.00
1391;DHT22;690;51.454;7.194;2023-12-04T02:11:58;-0.60;1.00
1391;DHT22;690;51.454;7.194;2023-12-04T02:14:25;-0.60;1.00
1391;DHT22;690;51.454;7.194;2023-12-04T02:16:54;-0.50;99.90
1391;DHT22;690;51.454;7.194;2023-12-04T02:19:23;-0.50;99.90
1391;DHT22;690;51.454;7.194;2023-12-04T02:21:50;-0.50;99.90
1391;DHT22;690;51.454;7.194;2023-12-04T02:24:19;-0.50;99.90
1391;DHT22;690;51.454;7.194;2023-12-04T02:26:49;-0.50;99.90
1391;DHT22;690;51.454;7.194;2023-12-04T02:29:29;-0.40;99.90
1391;DHT22;690;51.454;7.194;2023-12-04T02:31:58;-0.40;99.90
1391;DHT22;690;51.454;7.194;2023-12-04T02:34:27;-0.40;99.90
1391;DHT22;690;51.454;7.194;2023-12-04T02:36:56;-0.40;99.90
1391;DHT22;690;51.454;7.194;2023-12-04T02:39:26;-0.40;99.90
1391;DHT22;690;51.454;7.194;2023-12-04T02:41:53;-0.40;99.90
1391;DHT22;690;51.454;7.194;2023-12-04T02:44:20;-0.40;99.90
1391;DHT22;690;51.454;7.194;2023-12-04T02:46:47;-0.30;99.90
1391;DHT22;690;51.454;7.194;2023-12-04T02:49:14;-0.40;99.90
1391;DHT22;690;51.454;7.194;2023-12-04T02:51:41;-0.30;99.90
1391;DHT22;690;51.454;7.194;2023-12-04T02:54:08;-0.30;99.90
1391;DHT22;690;51.454;7.194;2023-12-04T02:56:36;-0.30;99.90
1391;DHT22;690;51.454;7.194;2023-12-04T02:59:03;-0.30;99.90
1391;DHT22;690;51.454;7.194;2023-12-04T03:01:30;-0.30;99.90
1391;DHT22;690;51.454;7.194;2023-12-04T03:03:56;-0.30;99.90
1391;DHT22;690;51.454;7.194;2023-12-04T03:06:23;-0.30;99.90
1391;DHT22;690;51.454;7.194;2023-12-04T03:08:50;-0.30;99.90
1391;DHT22;690;51.454;7.194;2023-12-04T03:11:17;-0.20;99.90
1391;DHT22;690;51.454;7.194;2023-12-04T03:13:45;-0.20;99.90
1391;DHT22;690;51.454;7.194;2023-12-04T03:16:22;-0.20;99.90
1391;DHT22;690;51.454;7.194;2023-12-04T03:18:54;-0.20;99.90
1391;DHT22;690;51.454;7.194;2023-12-04T03:21:27;-0.20;99.90
1391;DHT22;690;51.454;7.194;2023-12-04T03:23:55;-0.30;99.90
1391;DHT22;690;51.454;7.194;2023-12-04T03:26:23;-0.30;99.90
1391;DHT22;690;51.454;7.194;2023-12-04T03:28:51;-0.20;99.90
1391;DHT22;690;51.454;7.194;2023-12-04T03:31:18;-0.20;99.90
1391;DHT22;690;51.454;7.194;2023-12-04T03:33:45;-0.20;99.90
1391;DHT22;690;51.454;7.194;2023-12-04T03:36:12;-0.20;99.90
1391;DHT22;690;51.454;7.194;2023-12-04T03:38:39;-0.30;99.90
1391;DHT22;690;51.454;7.194;2023-12-04T03:41:13;-0.20;99.90
1391;DHT22;690;51.454;7.194;2023-12-04T03:43:40;-0.20;99.90
1391;DHT22;690;51.454;7.194;2023-12-04T03:46:08;-0.20;99.90
1391;DHT22;690;51.454;7.194;2023-12-04T03:48:35;-0.20;99.90
1391;DHT22;690;51.454;7.194;2023-12-04T03:51:03;-0.10;99.90
1391;DHT22;690;51.454;7.194;2023-12-04T03:53:30;-0.10;99.90
1391;DHT22;690;51.454;7.194;2023-12-04T03:55:58;-0.10;99.90
1391;DHT22;690;51.454;7.194;2023-12-04T03:58:25;-0.10;99.90
1391;DHT22;690;51.454;7.194;2023-12-04T04:00:52;-0.10;99.90
1391;DHT22;690;51.454;7.194;2023-12-04T04:03:20;-0.10;99.90
1391;DHT22;690;51.454;7.194;2023-12-04T04:05:47;0.00;99.90
1391;DHT22;690;51.454;7.194;2023-12-04T04:08:14;0.00;99.90
1391;DHT22;690;51.454;7.194;2023-12-04T04:10:40;0.00;99.90
1391;DHT22;690;51.454;7.194;2023-12-04T04:13:08;0.10;99.90
1391;DHT22;690;51.454;7.194;2023-12-04T04:15:34;0.10;99.90
1391;DHT22;690;51.454;7.194;2023-12-04T04:18:01;0.10;99.90
1391;DHT22;690;51.454;7.194;2023-12-04T04:20:29;0.20;99.90
1391;DHT22;690;51.454;7.194;2023-12-04T04:22:56;0.20;99.90
1391;DHT22;690;51.454;7.194;2023-12-04T04:25:23;0.20;99.90
1391;DHT22;690;51.454;7.194;2023-12-04T04:27:50;0.30;99.90
1391;DHT22;690;51.454;7.194;2023-12-04T04:30:17;0.30;99.90
1391;DHT22;690;51.454;7.194;2023-12-04T04:32:44;0.30;99.90
1391;DHT22;690;51.454;7.194;2023-12-04T04:35:11;0.30;99.90
1391;DHT22;690;51.454;7.194;2023-12-04T04:37:40;0.30;99.90
1391;DHT22;690;51.454;7.194;2023-12-04T04:40:08;0.30;99.90
1391;DHT22;690;51.454;7.194;2023-12-04T04:42:35;0.30;99.90
1391;DHT22;690;51.454;7.194;2023-12-04T04:45:02;0.40;99.90
1391;DHT22;690;51.454;7.194;2023-12-04T04:47:29;0.30;99.90
1391;DHT22;690;51.454;7.194;2023-12-04T04:49:56;0.40;99.90
1391;DHT22;690;51.454;7.194;2023-12-04T04:52:23;0.40;99.90
1391;DHT22;690;51.454;7.194;2023-12-04T04:54:51;0.40;99.90
1391;DHT22;690;51.454;7.194;2023-12-04T04:57:18;0.40;99.90
1391;DHT22;690;51.454;7.194;2023-12-04T04:59:45;0.30;99.90
1391;DHT22;690;51.454;7.194;2023-12-04T05:02:12;0.30;99.90
1391;DHT22;690;51.454;7.194;2023-12-04T05:04:38;0.30;99.90
1391;DHT22;690;51.454;7.194;2023-12-04T05:07:05;0.30;99.90
1391;DHT22;690;51.454;7.194;2023-12-04T05:09:32;0.30;99.90
1391;DHT22;690;51.454;7.194;2023-12-04T05:12:00;0.30;99.90
1391;DHT22;690;51.454;7.194;2023-12-04T05:14:30;0.20;99.90
1391;DHT22;690;51.454;7.194;2023-12-04T05:16:57;0.30;99.90
1391;DHT22;690;51.454;7.194;2023-12-04T05:19:24;0.30;99.90
1391;DHT22;690;51.454;7.194;2023-12-04T05:21:51;0.30;99.90
1391;DHT22;690;51.454;7.194;2023-12-04T05:24:18;0.20;99.90
1391;DHT22;690;51.454;7.194;2023-12-04T05:26:45;0.20;99.90
1391;DHT22;690;51.454;7.194;2023-12-04T05:29:13;0.20;99.90
1391;DHT22;690;51.454;7.194;2023-12-04T05:31:40;0.20;99.90
1391;DHT22;690;51.454;7.194;2023-12-04T05:34:07;0.30;99.90
1391;DHT22;690;51.454;7.194;2023-12-04T05:36:34;0.30;99.90
1391;DHT22;690;51.454;7.194;2023-12-04T05:39:01;0.30;99.90
1391;DHT22;690;51.454;7.194;2023-12-04T05:41:28;0.30;99.90
1391;DHT22;690;51.454;7.194;2023-12-04T05:43:55;0.30;99.90
1391;DHT22;690;51.454;7.194;2023-12-04T05:46:23;0.30;99.90
1391;DHT22;690;51.454;7.194;2023-12-04T05:48:50;0.30;99.90
1391;DHT22;690;51.454;7.194;2023-12-04T05:51:17;0.30;99.90
1391;DHT22;690;51.454;7.194;2023-12-04T05:53:44;0.40;99.90
1391;DHT22;690;51.454;7.194;2023-12-04T05:56:11;0.30;99.90
1391;DHT22;690;51.454;7.194;2023-12-04T05:58:38;0.40;99.90
1391;DHT22;690;51.454;7.194;2023-12-04T06:01:05;0.30;99.90
1391;DHT22;690;51.454;7.194;2023-12-04T06:03:34;0.30;99.90
1391;DHT22;690;51.454;7.194;2023-12-04T06:06:01;0.40;99.90
1391;DHT22;690;51.454;7.194;2023-12-04T06:08:27;0.40;99.90
1391;DHT22;690;51.454;7.194;2023-12-04T06:10:58;0.40;99.90
1391;DHT22;690;51.454;7.194;2023-12-04T06:13:25;0.40;99.90
1391;DHT22;690;51.454;7.194;2023-12-04T06:15:52;0.40;99.90
1391;DHT22;690;51.454;7.194;2023-12-04T06:18:19;0.40;99.90
1391;DHT22;690;51.454;7.194;2023-12-04T06:20:48;0.40;99.90
1391;DHT22;690;51.454;7.194;2023-12-04T06:23:15;0.30;99.90
1391;DHT22;690;51.454;7.194;2023-12-04T06:25:43;0.30;99.90
1391;DHT22;690;51.454;7.194;2023-12-04T06:28:11;0.40;99.90
1391;DHT22;690;51.454;7.194;2023-12-04T06:30:38;0.40;99.90
1391;DHT22;690;51.454;7.194;2023-12-04T06:33:07;0.40;99.90
1391;DHT22;690;51.454;7.194;2023-12-04T06:35:35;0.40;99.90
1391;DHT22;690;51.454;7.194;2023-12-04T06:38:06;0.40;99.90
1391;DHT22;690;51.454;7.194;2023-12-04T06:40:34;0.40;99.90
1391;DHT22;690;51.454;7.194;2023-12-04T06:43:02;0.40;99.90
1391;DHT22;690;51.454;7.194;2023-12-04T06:45:29;0.40;99.90
1391;DHT22;690;51.454;7.194;2023-12-04T06:47:59;0.40;99.90
1391;DHT22;690;51.454;7.194;2023-12-04T06:50:26;0.30;99.90
1391;DHT22;690;51.454;7.194;2023-12-04T06:52:52;0.30;99.90
1391;DHT22;690;51.454;7.194;2023-12-04T06:55:21;0.30;99.90
1391;DHT22;690;51.454;7.194;2023-12-04T06:57:49;0.40;99.90
1391;DHT22;690;51.454;7.194;2023-12-04T07:00:17;0.30;99.90
1391;DHT22;690;51.454;7.194;2023-12-04T07:02:44;0.30;99.90
1391;DHT22;690;51.454;7.194;2023-12-04T07:05:11;0.30;99.90
1391;DHT22;690;51.454;7.194;2023-12-04T07:07:38;0.30;99.90
1391;DHT22;690;51.454;7.194;2023-12-04T07:10:06;0.30;99.90
1391;DHT22;690;51.454;7.194;2023-12-04T07:12:34;0.30;99.90
1391;DHT22;690;51.454;7.194;2023-12-04T07:15:03;0.30;99.90
1391;DHT22;690;51.454;7.194;2023-12-04T07:17:29;0.30;99.90
1391;DHT22;690;51.454;7.194;2023-12-04T07:19:56;0.30;99.90
1391;DHT22;690;51.454;7.194;2023-12-04T07:22:23;0.30;99.90
1391;DHT22;690;51.454;7.194;2023-12-04T07:24:51;0.30;99.90
1391;DHT22;690;51.454;7.194;2023-12-04T07:27:17;0.30;99.90
1391;DHT22;690;51.454;7.194;2023-12-04T07:29:46;0.30;99.90
1391;DHT22;690;51.454;7.194;2023-12-04T07:32:13;0.30;99.90
1391;DHT22;690;51.454;7.194;2023-12-04T07:34:40;0.30;99.90
1391;DHT22;690;51.454;7.194;2023-12-04T07:37:07;0.40;99.90
1391;DHT22;690;51.454;7.194;2023-12-04T07:39:34;0.30;99.90
1391;DHT22;690;51.454;7.194;2023-12-04T07:42:01;0.40;99.90
1391;DHT22;690;51.454;7.194;2023-12-04T07:44:28;0.40;99.90
1391;DHT22;690;51.454;7.194;2023-12-04T07:46:57;0.40;99.90
1391;DHT22;690;51.454;7.194;2023-12-04T07:49:24;0.40;99.90
1391;DHT22;690;51.454;7.194;2023-12-04T07:51:50;0.50;99.90
1391;DHT22;690;51.454;7.194;2023-12-04T07:54:17;0.50;99.90
1391;DHT22;690;51.454;7.194;2023-12-04T07:56:44;0.50;99.90
1391;DHT22;690;51.454;7.194;2023-12-04T07:59:11;0.60;99.90
1391;DHT22;690;51.454;7.194;2023-12-04T08:01:38;0.60;99.90
1391;DHT22;690;51.454;7.194;2023-12-04T08:04:06;0.60;99.90
1391;DHT22;690;51.454;7.194;2023-12-04T08:06:33;0.70;99.90
1391;DHT22;690;51.454;7.194;2023-12-04T08:09:00;0.70;99.90
1391;DHT22;690;51.454;7.194;2023-12-04T08:11:28;0.80;99.90
1391;DHT22;690;51.454;7.194;2023-12-04T08:13:55;0.80;99.90
1391;DHT22;690;51.454;7.194;2023-12-04T08:16:22;0.80;99.90
1391;DHT22;690;51.454;7.194;2023-12-04T08:18:49;0.90;99.90
1391;DHT22;690;51.454;7.194;2023-12-04T08:21:17;0.90;99.90
1391;DHT22;690;51.454;7.194;2023-12-04T08:23:44;0.90;99.90
1391;DHT22;690;51.454;7.194;2023-12-04T08:26:11;1.00;99.90
1391;DHT22;690;51.454;7.194;2023-12-04T08:28:38;1.00;99.90
1391;DHT22;690;51.454;7.194;2023-12-04T08:31:07;1.10;99.90
1391;DHT22;690;51.454;7.194;2023-12-04T08:33:35;1.00;99.90
1391;DHT22;690;51.454;7.194;2023-12-04T08:36:03;1.00;99.90
1391;DHT22;690;51.454;7.194;2023-12-04T08:38:31;1.10;99.90
1391;DHT22;690;51.454;7.194;2023-12-04T08:40:58;1.10;99.90
1391;DHT22;690;51.454;7.194;2023-12-04T08:43:25;1.20;99.90
1391;DHT22;690;51.454;7.194;2023-12-04T08:45:52;1.20;99.90
1391;DHT22;690;51.454;7.194;2023-12-04T08:48:19;1.20;99.90
1391;DHT22;690;51.454;7.194;2023-12-04T08:50:47;1.20;99.90
1391;DHT22;690;51.454;7.194;2023-12-04T08:53:14;1.30;99.90
1391;DHT22;690;51.454;7.194;2023-12-04T08:55:42;1.30;99.90
1391;DHT22;690;51.454;7.194;2023-12-04T08:58:10;1.30;99.90
1391;DHT22;690;51.454;7.194;2023-12-04T09:00:37;1.40;99.90
1391;DHT22;690;51.454;7.194;2023-12-04T09:03:09;1.40;99.90
1391;DHT22;690;51.454;7.194;2023-12-04T09:05:37;1.50;99.90
1391;DHT22;690;51.454;7.194;2023-12-04T09:08:04;1.50;99.90
1391;DHT22;690;51.454;7.194;2023-12-04T09:10:32;1.60;99.90
1391;DHT22;690;51.454;7.194;2023-12-04T09:13:00;1.60;99.90
1391;DHT22;690;51.454;7.194;2023-12-04T09:15:27;1.60;99.90
1391;DHT22;690;51.454;7.194;2023-12-04T09:17:54;1.70;99.90
1391;DHT22;690;51.454;7.194;2023-12-04T09:20:21;1.60;99.90
1391;DHT22;690;51.454;7.194;2023-12-04T09:22:48;1.70;99.90
1391;DHT22;690;51.454;7.194;2023-12-04T09:25:16;1.70;99.90
1391;DHT22;690;51.454;7.194;2023-12-04T09:27:43;1.70;99.90
1391;DHT22;690;51.454;7.194;2023-12-04T09:30:12;1.80;99.90
1391;DHT22;690;51.454;7.194;2023-12-04T09:32:40;1.80;99.90
1391;DHT22;690;51.454;7.194;2023-12-04T09:35:08;1.90;99.90
1391;DHT22;690;51.454;7.194;2023-12-04T09:37:35;1.90;99.90
1391;DHT22;690;51.454;7.194;2023-12-04T09:40:02;1.90;99.90
1391;DHT22;690;51.454;7.194;2023-12-04T09:42:31;2.00;99.90
1391;DHT22;690;51.454;7.194;2023-12-04T09:44:58;2.00;99.90
1391;DHT22;690;51.454;7.194;2023-12-04T09:47:30;2.10;99.90
1391;DHT22;690;51.454;7.194;2023-12-04T09:49:58;2.10;99.90
1391;DHT22;690;51.454;7.194;2023-12-04T09:52:27;2.20;99.90
1391;DHT22;690;51.454;7.194;2023-12-04T09:54:54;2.20;99.90
1391;DHT22;690;51.454;7.194;2023-12-04T09:57:22;2.20;99.90
1391;DHT22;690;51.454;7.194;2023-12-04T09:59:51;2.30;99.90
1391;DHT22;690;51.454;7.194;2023-12-04T10:02:19;2.30;99.90
1391;DHT22;690;51.454;7.194;2023-12-04T10:04:48;2.40;99.90
1391;DHT22;690;51.454;7.194;2023-12-04T10:07:15;2.40;99.90
1391;DHT22;690;51.454;7.194;2023-12-04T10:09:42;2.40;99.90
1391;DHT22;690;51.454;7.194;2023-12-04T10:12:09;2.50;99.90
1391;DHT22;690;51.454;7.194;2023-12-04T10:14:36;2.50;99.90
1391;DHT22;690;51.454;7.194;2023-12-04T10:17:14;2.50;99.90
1391;DHT22;690;51.454;7.194;2023-12-04T10:19:43;2.60;99.90
1391;DHT22;690;51.454;7.194;2023-12-04T10:22:11;2.60;99.90
1391;DHT22;690;51.454;7.194;2023-12-04T10:24:39;2.60;99.90
1391;DHT22;690;51.454;7.194;2023-12-04T10:27:08;2.60;99.90
1391;DHT22;690;51.454;7.194;2023-12-04T10:29:42;2.60;99.90
1391;DHT22;690;51.454;7.194;2023-12-04T10:32:09;2.70;99.90
1391;DHT22;690;51.454;7.194;2023-12-04T10:34:35;2.70;99.90
1391;DHT22;690;51.454;7.194;2023-12-04T10:37:04;2.80;99.90
1391;DHT22;690;51.454;7.194;2023-12-04T10:39:45;2.80;99.90
1391;DHT22;690;51.454;7.194;2023-12-04T10:42:23;2.90;99.90
1391;DHT22;690;51.454;7.194;2023-12-04T10:44:51;3.00;99.90
1391;DHT22;690;51.454;7.194;2023-12-04T10:47:19;3.00;99.90
1391;DHT22;690;51.454;7.194;2023-12-04T10:49:48;3.00;99.90
1391;DHT22;690;51.454;7.194;2023-12-04T10:52:16;3.00;99.90
1391;DHT22;690;51.454;7.194;2023-12-04T10:54:46;3.00;99.90
1391;DHT22;690;51.454;7.194;2023-12-04T10:57:21;3.00;99.90
1391;DHT22;690;51.454;7.194;2023-12-04T10:59:52;3.00;99.90
1391;DHT22;690;51.454;7.194;2023-12-04T11:02:25;3.00;99.90
1391;DHT22;690;51.454;7.194;2023-12-04T11:04:58;3.10;99.90
1391;DHT22;690;51.454;7.194;2023-12-04T11:07:27;3.10;99.90
1391;DHT22;690;51.454;7.194;2023-12-04T11:09:58;3.10;99.90
1391;DHT22;690;51.454;7.194;2023-12-04T11:12:29;3.10;99.90
1391;DHT22;690;51.454;7.194;2023-12-04T11:14:59;3.10;99.90
1391;DHT22;690;51.454;7.194;2023-12-04T11:17:32;3.00;99.90
1391;DHT22;690;51.454;7.194;2023-12-04T11:20:05;3.00;99.90
1391;DHT22;690;51.454;7.194;2023-12-04T11:22:35;3.00;99.90
1391;DHT22;690;51.454;7.194;2023-12-04T11:25:06;3.00;99.90
1391;DHT22;690;51.454;7.194;2023-12-04T11:27:39;3.00;99.90
1391;DHT22;690;51.454;7.194;2023-12-04T11:30:08;2.90;99.90
1391;DHT22;690;51.454;7.194;2023-12-04T11:32:44;2.90;99.90
1391;DHT22;690;51.454;7.194;2023-12-04T11:35:13;2.90;99.90
1391;DHT22;690;51.454;7.194;2023-12-04T11:37:41;3.00;99.90
1391;DHT22;690;51.454;7.194;2023-12-04T11:40:14;3.00;99.90
1391;DHT22;690;51.454;7.194;2023-12-04T11:42:42;3.00;99.90
1391;DHT22;690;51.454;7.194;2023-12-04T11:45:09;3.10;99.90
1391;DHT22;690;51.454;7.194;2023-12-04T11:47:49;3.00;99.90
1391;DHT22;690;51.454;7.194;2023-12-04T11:50:17;3.00;99.90
1391;DHT22;690;51.454;7.194;2023-12-04T11:52:44;3.00;99.90
1391;DHT22;690;51.454;7.194;2023-12-04T11:55:20;3.00;99.90
1391;DHT22;690;51.454;7.194;2023-12-04T11:57:49;2.90;99.90
1391;DHT22;690;51.454;7.194;2023-12-04T12:00:20;2.90;99.90
1391;DHT22;690;51.454;7.194;2023-12-04T12:03:00;2.80;99.90
1391;DHT22;690;51.454;7.194;2023-12-04T12:05:30;2.80;99.90
1391;DHT22;690;51.454;7.194;2023-12-04T12:08:00;2.80;99.90
1391;DHT22;690;51.454;7.194;2023-12-04T12:10:30;2.80;99.90
1391;DHT22;690;51.454;7.194;2023-12-04T12:12:57;2.80;99.90
1391;DHT22;690;51.454;7.194;2023-12-04T12:15:25;2.80;99.90
1391;DHT22;690;51.454;7.194;2023-12-04T12:17:52;2.80;99.90
1391;DHT22;690;51.454;7.194;2023-12-04T12:20:19;2.80;99.90
1391;DHT22;690;51.454;7.194;2023-12-04T12:22:48;2.70;99.90
1391;DHT22;690;51.454;7.194;2023-12-04T12:25:16;2.70;99.90
1391;DHT22;690;51.454;7.194;2023-12-04T12:27:45;2.70;99.90
1391;DHT22;690;51.454;7.194;2023-12-04T12:30:12;2.70;99.90
1391;DHT22;690;51.454;7.194;2023-12-04T12:32:40;2.70;99.90
1391;DHT22;690;51.454;7.194;2023-12-04T12:35:07;2.70;99.90
1391;DHT22;690;51.454;7.194;2023-12-04T12:37:34;2.70;99.90
1391;DHT22;690;51.454;7.194;2023-12-04T12:40:01;2.70;99.90
1391;DHT22;690;51.454;7.194;2023-12-04T12:42:30;2.70;99.90
1391;DHT22;690;51.454;7.194;2023-12-04T12:45:01;2.70;99.90
1391;DHT22;690;51.454;7.194;2023-12-04T12:47:29;2.80;99.90
1391;DHT22;690;51.454;7.194;2023-12-04T12:49:56;2.80;99.90
1391;DHT22;690;51.454;7.194;2023-12-04T12:52:23;2.80;99.90
1391;DHT22;690;51.454;7.194;2023-12-04T12:54:52;2.80;99.90
1391;DHT22;690;51.454;7.194;2023-12-04T12:57:19;2.80;99.90
1391;DHT22;690;51.454;7.194;2023-12-04T12:59:46;2.80;99.90
1391;DHT22;690;51.454;7.194;2023-12-04T13:02:14;2.90;99.90
1391;DHT22;690;51.454;7.194;2023-12-04T13:04:43;2.90;99.90
1391;DHT22;690;51.454;7.194;2023-12-04T13:07:10;2.80;99.90
1391;DHT22;690;51.454;7.194;2023-12-04T13:09:37;2.70;99.90
1391;DHT22;690;51.454;7.194;2023-12-04T13:12:06;2.60;99.90
1391;DHT22;690;51.454;7.194;2023-12-04T13:14:34;2.60;99.90
1391;DHT22;690;51.454;7.194;2023-12-04T13:17:01;2.50;99.90
1391;DHT22;690;51.454;7.194;2023-12-04T13:19:30;2.50;99.90
1391;DHT22;690;51.454;7.194;2023-12-04T13:22:00;2.50;99.90
1391;DHT22;690;51.454;7.194;2023-12-04T13:24:27;2.50;99.90
1391;DHT22;690;51.454;7.194;2023-12-04T13:26:54;2.40;99.90
1391;DHT22;690;51.454;7.194;2023-12-04T13:29:21;2.40;99.90
1391;DHT22;690;51.454;7.194;2023-12-04T13:31:48;2.40;99.90
1391;DHT22;690;51.454;7.194;2023-12-04T13:34:16;2.40;99.90
1391;DHT22;690;51.454;7.194;2023-12-04T13:36:44;2.40;99.90
1391;DHT22;690;51.454;7.194;2023-12-04T13:39:11;2.40;99.90
1391;DHT22;690;51.454;7.194;2023-12-04T13:41:46;2.40;99.90
1391;DHT22;690;51.454;7.194;2023-12-04T13:44:30;2.40;99.90
1391;DHT22;690;51.454;7.194;2023-12-04T13:46:58;2.40;99.90
1391;DHT22;690;51.454;7.194;2023-12-04T13:49:25;2.40;99.90
1391;DHT22;690;51.454;7.194;2023-12-04T13:51:56;2.50;99.90
1391;DHT22;690;51.454;7.194;2023-12-04T13:54:24;2.50;99.90
1391;DHT22;690;51.454;7.194;2023-12-04T13:57:06;2.50;99.90
1391;DHT22;690;51.454;7.194;2023-12-04T13:59:37;2.60;99.90
1391;DHT22;690;51.454;7.194;2023-12-04T14:02:05;2.60;99.90
1391;DHT22;690;51.454;7.194;2023-12-04T14:04:36;2.60;99.90
1391;DHT22;690;51.454;7.194;2023-12-04T14:07:06;2.60;99.90
1391;DHT22;690;51.454;7.194;2023-12-04T14:09:34;2.50;99.90
1391;DHT22;690;51.454;7.194;2023-12-04T14:12:02;2.60;99.90
1391;DHT22;690;51.454;7.194;2023-12-04T14:14:29;2.60;99.90
1391;DHT22;690;51.454;7.194;2023-12-04T14:16:56;2.40;99.90
1391;DHT22;690;51.454;7.194;2023-12-04T14:19:23;2.50;99.90
1391;DHT22;690;51.454;7.194;2023-12-04T14:21:50;2.50;99.90
1391;DHT22;690;51.454;7.194;2023-12-04T14:24:18;2.40;99.90
1391;DHT22;690;51.454;7.194;2023-12-04T14:26:47;2.30;99.90
1391;DHT22;690;51.454;7.194;2023-12-04T14:29:14;2.30;99.90
1391;DHT22;690;51.454;7.194;2023-12-04T14:31:41;2.30;99.90
1391;DHT22;690;51.454;7.194;2023-12-04T14:34:08;2.20;99.90
1391;DHT22;690;51.454;7.194;2023-12-04T14:36:35;2.20;99.90
1391;DHT22;690;51.454;7.194;2023-12-04T14:39:02;2.10;99.90
1391;DHT22;690;51.454;7.194;2023-12-04T14:41:31;2.10;99.90
1391;DHT22;690;51.454;7.194;2023-12-04T14:43:58;2.10;99.90
1391;DHT22;690;51.454;7.194;2023-12-04T14:46:25;2.20;99.90
1391;DHT22;690;51.454;7.194;2023-12-04T14:48:52;2.20;99.90
1391;DHT22;690;51.454;7.194;2023-12-04T14:51:19;2.10;99.90
1391;DHT22;690;51.454;7.194;2023-12-04T14:53:46;2.10;99.90
1391;DHT22;690;51.454;7.194;2023-12-04T14:56:16;2.10;99.90
1391;DHT22;690;51.454;7.194;2023-12-04T14:58:53;2.10;99.90
1391;DHT22;690;51.454;7.194;2023-12-04T15:01:38;2.10;99.90
1391;DHT22;690;51.454;7.194;2023-12-04T15:04:27;1.90;99.90
1391;DHT22;690;51.454;7.194;2023-12-04T15:07:12;2.00;99.90
1391;DHT22;690;51.454;7.194;2023-12-04T15:09:56;2.00;99.90
1391;DHT22;690;51.454;7.194;2023-12-04T15:12:52;1.90;99.90
1391;DHT22;690;51.454;7.194;2023-12-04T15:15:42;1.90;99.90
1391;DHT22;690;51.454;7.194;2023-12-04T15:18:28;1.80;99.90
1391;DHT22;690;51.454;7.194;2023-12-04T15:21:04;1.90;99.90
1391;DHT22;690;51.454;7.194;2023-12-04T15:23:31;1.90;99.90
1391;DHT22;690;51.454;7.194;2023-12-04T15:25:57;1.90;99.90
1391;DHT22;690;51.454;7.194;2023-12-04T15:28:24;1.90;99.90
1391;DHT22;690;51.454;7.194;2023-12-04T15:30:51;2.00;99.90
1391;DHT22;690;51.454;7.194;2023-12-04T15:33:18;1.90;99.90
1391;DHT22;690;51.454;7.194;2023-12-04T15:35:46;2.00;99.90
1391;DHT22;690;51.454;7.194;2023-12-04T15:38:13;2.00;99.90
1391;DHT22;690;51.454;7.194;2023-12-04T15:40:40;2.00;99.90
1391;DHT22;690;51.454;7.194;2023-12-04T15:43:06;2.00;99.90
1391;DHT22;690;51.454;7.194;2023-12-04T15:45:33;2.00;99.90
1391;DHT22;690;51.454;7.194;2023-12-04T15:48:00;2.00;99.90
1391;DHT22;690;51.454;7.194;2023-12-04T15:50:27;2.00;99.90
1391;DHT22;690;51.454;7.194;2023-12-04T15:52:54;2.00;99.90
1391;DHT22;690;51.454;7.194;2023-12-04T15:55:21;2.00;99.90
1391;DHT22;690;51.454;7.194;2023-12-04T15:57:48;2.00;99.90
1391;DHT22;690;51.454;7.194;2023-12-04T16:00:20;2.00;99.90
1391;DHT22;690;51.454;7.194;2023-12-04T16:02:47;2.00;99.90
1391;DHT22;690;51.454;7.194;2023-12-04T16:05:16;2.00;99.90
1391;DHT22;690;51.454;7.194;2023-12-04T16:07:44;2.00;99.90
1391;DHT22;690;51.454;7.194;2023-12-04T16:10:13;2.00;99.90
1391;DHT22;690;51.454;7.194;2023-12-04T16:12:40;2.10;99.90
1391;DHT22;690;51.454;7.194;2023-12-04T16:15:08;2.00;99.90
1391;DHT22;690;51.454;7.194;2023-12-04T16:17:36;2.00;99.90
1391;DHT22;690;51.454;7.194;2023-12-04T16:20:05;2.00;99.90
1391;DHT22;690;51.454;7.194;2023-12-04T16:22:36;1.90;99.90
1391;DHT22;690;51.454;7.194;2023-12-04T16:25:05;1.90;99.90
1391;DHT22;690;51.454;7.194;2023-12-04T16:27:33;2.00;99.90
1391;DHT22;690;51.454;7.194;2023-12-04T16:30:00;1.90;99.90
1391;DHT22;690;51.454;7.194;2023-12-04T16:32:27;1.90;99.90
1391;DHT22;690;51.454;7.194;2023-12-04T16:34:55;1.90;99.90
1391;DHT22;690;51.454;7.194;2023-12-04T16:37:23;1.90;99.90
1391;DHT22;690;51.454;7.194;2023-12-04T16:39:51;1.90;99.90